Time;durP1;ratioP1;P1;durP2;ratioP2;P2;SDS_P1;SDS_P2;PMS_P1;PMS_P2;Temp;Humidity;BMP_temperature;BMP_pressure;BME280_temperature;BME280_humidity;BME280_pressure;Samples;Min_cycle;Max_cycle;Signal;HPM_P1;HPM_P2
2023/01/12 00:00:40;;;;;;;;;;;;;;;12.74;74.87;100480.44;1052658;28;722;-69
2023/01/12 00:01:30;;;;;;;;;;;;;;;12.73;74.54;100481.41;1052758;28;1158;-70
2023/01/12 00:02:21;;;;;;;;;;;;;;;12.72;74.78;100480.56;1052546;28;1185;-69
2023/01/12 00:03:11;;;;;;;;;;;;;;;12.75;75.09;100485.66;1052741;28;1151;-69
2023/01/12 00:04:02;;;;;;;;;;;;;;;12.72;74.96;100469.03;1052493;28;702;-69
2023/01/12 00:04:52;;;;;;;;;;;;;;;12.74;74.36;100478.63;1049047;28;1691;-69
2023/01/12 00:05:43;;;;;;;;;;;;;;;12.74;75.13;100473.25;1049948;28;700;-70
2023/01/12 00:06:33;;;;;;;;;;;;;;;12.75;75.05;100468.75;1052006;28;1326;-69
2023/01/12 00:07:24;;;;;;;;;;;;;;;12.75;74.79;100477.63;1048999;28;673;-70
2023/01/12 00:08:14;;;;;;;;;;;;;;;12.74;74.33;100467.91;1052705;28;1504;-69
2023/01/12 00:09:08;;;;;;;;;;;;;;;12.75;74.77;100479.47;1050208;28;676;-69
2023/01/12 00:09:59;;;;;;;;;;;;;;;12.74;74.87;100472.41;1052146;28;1144;-69
2023/01/12 00:10:49;;;;;;;;;;;;;;;12.74;74.66;100477.75;1049498;28;1048;-69
2023/01/12 00:11:39;;;;;;;;;;;;;;;12.72;75.04;100469.84;1052589;28;634;-69
2023/01/12 00:12:30;;;;;;;;;;;;;;;12.75;74.56;100474.13;1049080;28;697;-69
2023/01/12 00:13:20;;;;;;;;;;;;;;;12.73;74.98;100466.22;1051761;28;1553;-69
2023/01/12 00:14:11;;;;;;;;;;;;;;;12.74;74.56;100467.91;1048398;28;622;-69
2023/01/12 00:15:01;;;;;;;;;;;;;;;12.75;74.80;100463.41;1050264;28;1559;-69
2023/01/12 00:17:01;;;;;;;;;;;;;;;12.73;74.58;100466.22;1049076;28;713;-69
2023/01/12 00:17:51;;;;;;;;;;;;;;;12.75;74.64;100461.59;1048977;28;642;-69
2023/01/12 00:18:42;;;;;;;;;;;;;;;12.75;74.92;100463.41;1048940;28;626;-70
2023/01/12 00:19:32;;;;;;;;;;;;;;;12.72;74.29;100456.50;1051690;28;1465;-70
2023/01/12 00:20:23;;;;;;;;;;;;;;;12.73;74.99;100455.53;1049685;28;633;-70
2023/01/12 00:21:13;;;;;;;;;;;;;;;12.74;74.93;100449.19;1049135;28;935;-69
2023/01/12 00:22:10;;;;;;;;;;;;;;;12.74;74.54;100454.53;1048493;28;611;-70
2023/01/12 00:23:00;;;;;;;;;;;;;;;12.74;74.26;100451.88;1051313;28;1155;-70
2023/01/12 00:23:51;;;;;;;;;;;;;;;12.74;74.98;100457.22;1052432;28;999;-70
2023/01/12 00:24:42;;;;;;;;;;;;;;;12.74;74.48;100443.84;1052896;28;682;-70
2023/01/12 00:25:33;;;;;;;;;;;;;;;12.73;74.68;100443.97;1052710;28;1676;-70
2023/01/12 00:26:23;;;;;;;;;;;;;;;12.73;75.21;100450.16;1053243;28;742;-70
2023/01/12 00:27:14;;;;;;;;;;;;;;;12.72;74.90;100448.47;1052458;28;638;-70
2023/01/12 00:28:04;;;;;;;;;;;;;;;12.72;75.13;100451.13;1052722;28;685;-69
2023/01/12 00:28:55;;;;;;;;;;;;;;;12.70;74.85;100437.06;1052808;28;1639;-69
2023/01/12 00:29:45;;;;;;;;;;;;;;;12.71;75.00;100444.13;1053199;28;754;-69
2023/01/12 00:30:35;;;;;;;;;;;;;;;12.74;75.28;100433.16;1052409;28;528;-69
2023/01/12 00:31:26;;;;;;;;;;;;;;;12.74;74.54;100433.16;1049465;28;653;-69
2023/01/12 00:32:16;;;;;;;;;;;;;;;12.74;74.87;100432.31;1049181;28;650;-69
2023/01/12 00:33:07;;;;;;;;;;;;;;;12.74;74.97;100433.16;1049656;28;1115;-69
2023/01/12 00:33:57;;;;;;;;;;;;;;;12.74;75.01;100430.47;1052759;28;720;-69
2023/01/12 00:34:48;;;;;;;;;;;;;;;12.76;75.09;100439.25;1049365;28;1087;-69
2023/01/12 00:35:38;;;;;;;;;;;;;;;12.77;74.40;100430.25;1052744;28;774;-69
2023/01/12 00:36:28;;;;;;;;;;;;;;;12.77;74.72;100432.06;1048904;28;755;-69
2023/01/12 00:37:19;;;;;;;;;;;;;;;12.77;74.37;100421.38;1049455;28;1894;-68
2023/01/12 00:38:09;;;;;;;;;;;;;;;12.76;74.27;100422.34;1052602;28;1159;-69
2023/01/12 00:39:00;;;;;;;;;;;;;;;12.76;75.11;100427.69;1052553;28;674;-69
2023/01/12 00:39:50;;;;;;;;;;;;;;;12.75;74.81;100424.16;1050219;28;1521;-69
2023/01/12 00:40:41;;;;;;;;;;;;;;;12.75;74.69;100409.94;1051054;28;749;-69
2023/01/12 00:46:08;;;;;;;;;;;;;;;12.73;74.60;100407.41;1052669;28;1063;-68
2023/01/12 00:46:59;;;;;;;;;;;;;;;12.75;74.51;100417.97;1052405;28;745;-69
2023/01/12 00:47:49;;;;;;;;;;;;;;;12.76;75.15;100417.84;1052437;28;1171;-69
2023/01/12 00:48:39;;;;;;;;;;;;;;;12.75;74.24;100405.44;1052313;28;789;-69
2023/01/12 00:49:30;;;;;;;;;;;;;;;12.76;74.27;100406.28;1052361;28;1174;-69
2023/01/12 00:50:20;;;;;;;;;;;;;;;12.74;74.49;100403.75;1052674;28;720;-69
2023/01/12 00:51:11;;;;;;;;;;;;;;;12.77;74.46;100410.69;1052304;28;1271;-69
2023/01/12 00:52:01;;;;;;;;;;;;;;;12.76;74.38;100401.81;1052533;28;718;-69
2023/01/12 00:52:52;;;;;;;;;;;;;;;12.74;74.64;100403.75;1050551;28;1553;-69
2023/01/12 00:53:42;;;;;;;;;;;;;;;12.76;74.70;100399.13;1052116;28;661;-69
2023/01/12 00:54:33;;;;;;;;;;;;;;;12.76;74.21;100411.66;1053611;28;777;-69
2023/01/12 00:55:23;;;;;;;;;;;;;;;12.74;74.46;100403.75;1051939;28;1957;-69
2023/01/12 00:56:14;;;;;;;;;;;;;;;12.72;74.66;100395.00;1052948;28;645;-69
2023/01/12 00:57:04;;;;;;;;;;;;;;;12.71;74.46;100396.00;1051117;28;1075;-69
2023/01/12 00:57:54;;;;;;;;;;;;;;;12.72;74.67;100400.34;1052262;28;630;-69
2023/01/12 00:58:45;;;;;;;;;;;;;;;12.73;75.26;100395.84;1050829;28;1044;-69
2023/01/12 00:59:35;;;;;;;;;;;;;;;12.73;74.87;100396.69;1049228;28;665;-69
2023/01/12 01:00:26;;;;;;;;;;;;;;;12.74;74.43;100397.56;1047536;28;1135;-69
2023/01/12 01:01:16;;;;;;;;;;;;;;;12.71;74.48;100396.00;1052889;28;1193;-69
2023/01/12 01:02:07;;;;;;;;;;;;;;;12.73;75.31;100395.84;1050217;28;1171;-69
2023/01/12 01:02:57;;;;;;;;;;;;;;;12.72;74.49;100389.66;1051989;28;709;-69
2023/01/12 01:03:47;;;;;;;;;;;;;;;12.71;74.64;100385.31;1052325;28;701;-69
2023/01/12 01:04:38;;;;;;;;;;;;;;;12.73;74.49;100395.84;1050175;28;1163;-69
2023/01/12 01:05:28;;;;;;;;;;;;;;;12.73;74.25;100391.34;1052704;28;638;-69
2023/01/12 01:06:19;;;;;;;;;;;;;;;12.73;74.89;100394.03;1049777;28;1297;-69
2023/01/12 01:07:11;;;;;;;;;;;;;;;12.73;74.15;100386.00;1048704;28;642;-69
2023/01/12 01:08:01;;;;;;;;;;;;;;;12.73;74.35;100386.00;1051751;28;1136;-69
2023/01/12 01:08:52;;;;;;;;;;;;;;;12.74;74.63;100392.19;1052367;28;685;-69
2023/01/12 01:09:43;;;;;;;;;;;;;;;12.73;75.19;100390.50;1052745;28;728;-69
2023/01/12 01:10:33;;;;;;;;;;;;;;;12.70;74.55;100380.09;1052507;28;696;-69
2023/01/12 01:11:23;;;;;;;;;;;;;;;12.70;74.88;100383.59;1051704;28;1100;-69
2023/01/12 01:12:14;;;;;;;;;;;;;;;12.71;75.30;100382.63;1052518;28;724;-69
2023/01/12 01:13:04;;;;;;;;;;;;;;;12.72;74.55;100378.13;1052292;28;1497;-69
2023/01/12 01:13:55;;;;;;;;;;;;;;;12.71;74.30;100377.28;1052237;28;1143;-70
2023/01/12 01:14:45;;;;;;;;;;;;;;;12.71;74.70;100377.28;1048864;28;638;-69
2023/01/12 01:15:36;;;;;;;;;;;;;;;12.71;75.20;100382.63;1051400;28;1170;-69
2023/01/12 01:16:26;;;;;;;;;;;;;;;12.72;75.38;100381.63;1048330;28;637;-70
2023/01/12 01:17:17;;;;;;;;;;;;;;;12.69;74.86;100371.22;1048323;28;1918;-70
2023/01/12 01:18:07;;;;;;;;;;;;;;;12.70;74.32;100375.59;1048864;28;617;-69
2023/01/12 01:18:57;;;;;;;;;;;;;;;12.70;75.17;100375.59;1052044;28;721;-70
2023/01/12 01:19:48;;;;;;;;;;;;;;;12.70;74.87;100372.06;1052310;28;685;-70
2023/01/12 01:20:38;;;;;;;;;;;;;;;12.71;74.90;100373.75;1051665;28;689;-70
2023/01/12 01:21:29;;;;;;;;;;;;;;;12.71;75.15;100371.94;1048317;28;1341;-70
2023/01/12 01:22:19;;;;;;;;;;;;;;;12.69;74.17;100368.53;1049958;28;738;-70
2023/01/12 01:23:10;;;;;;;;;;;;;;;12.71;74.44;100369.28;1052028;28;1164;-70
2023/01/12 01:24:00;;;;;;;;;;;;;;;12.73;75.25;100361.94;1052186;28;1480;-70
2023/01/12 01:24:50;;;;;;;;;;;;;;;12.75;74.62;100365.34;1052416;28;1127;-70
2023/01/12 01:25:41;;;;;;;;;;;;;;;12.77;75.08;100368.75;1051133;28;1510;-70
2023/01/12 01:26:31;;;;;;;;;;;;;;;12.76;75.54;100364.38;1052641;28;657;-71
2023/01/12 01:27:22;;;;;;;;;;;;;;;12.76;75.24;100361.69;1052093;28;972;-69
2023/01/12 01:28:12;;;;;;;;;;;;;;;12.75;75.40;100354.66;1053066;28;645;-70
2023/01/12 01:29:03;;;;;;;;;;;;;;;12.76;75.07;100359.03;1048674;28;633;-70
2023/01/12 01:29:53;;;;;;;;;;;;;;;12.74;75.26;100360.97;1049332;28;627;-69
2023/01/12 01:30:43;;;;;;;;;;;;;;;12.74;75.16;100355.63;1048936;28;638;-69
2023/01/12 01:31:34;;;;;;;;;;;;;;;12.72;74.89;100357.56;1052142;28;1309;-70
2023/01/12 01:32:24;;;;;;;;;;;;;;;12.73;74.72;100353.06;1052383;28;1580;-70
2023/01/12 01:33:15;;;;;;;;;;;;;;;12.71;75.23;100350.56;1050128;28;1278;-70
2023/01/12 01:34:05;;;;;;;;;;;;;;;12.72;74.53;100346.88;1052271;28;1799;-69
2023/01/12 01:34:55;;;;;;;;;;;;;;;12.73;74.60;100348.56;1051609;28;1396;-70
2023/01/12 01:35:46;;;;;;;;;;;;;;;12.72;74.82;100341.53;1052887;28;692;-70
2023/01/12 01:36:36;;;;;;;;;;;;;;;12.73;75.27;100340.56;1052754;28;1162;-69
2023/01/12 01:37:27;;;;;;;;;;;;;;;12.73;75.27;100345.91;1052158;28;1973;-69
2023/01/12 01:38:17;;;;;;;;;;;;;;;12.74;74.43;100344.94;1050001;28;689;-70
2023/01/12 01:39:08;;;;;;;;;;;;;;;12.74;74.78;100333.38;1051821;28;1677;-70
2023/01/12 01:39:58;;;;;;;;;;;;;;;12.74;74.76;100341.41;1051839;28;730;-69
2023/01/12 01:40:49;;;;;;;;;;;;;;;12.75;74.38;100335.94;1052118;28;701;-70
2023/01/12 01:41:39;;;;;;;;;;;;;;;12.75;74.50;100340.44;1051944;28;721;-70
2023/01/12 01:42:29;;;;;;;;;;;;;;;12.74;75.17;100331.56;1052352;28;1127;-69
2023/01/12 01:43:20;;;;;;;;;;;;;;;12.76;74.89;100329.63;1051380;28;662;-70
2023/01/12 01:44:10;;;;;;;;;;;;;;;12.75;75.38;100335.94;1052201;28;1217;-70
2023/01/12 01:45:01;;;;;;;;;;;;;;;12.73;75.26;100337.03;1052169;28;935;-70
2023/01/12 01:45:51;;;;;;;;;;;;;;;12.73;74.62;100323.66;1052276;28;625;-70
2023/01/12 01:46:41;;;;;;;;;;;;;;;12.73;75.23;100324.50;1049346;28;650;-71
2023/01/12 01:47:32;;;;;;;;;;;;;;;12.74;75.28;100322.69;1052283;28;630;-70
2023/01/12 01:48:23;;;;;;;;;;;;;;;12.74;75.26;100326.22;1049571;28;1118;-70
2023/01/12 01:49:13;;;;;;;;;;;;;;;12.76;74.58;100326.09;1052438;28;688;-69
2023/01/12 01:50:04;;;;;;;;;;;;;;;12.74;74.79;100315.53;1052178;28;606;-69
2023/01/12 01:50:56;;;;;;;;;;;;;;;12.73;75.04;100312.97;1052130;28;1123;-70
2023/01/12 01:51:46;;;;;;;;;;;;;;;12.73;75.34;100318.31;1048688;28;638;-70
2023/01/12 01:52:36;;;;;;;;;;;;;;;12.73;74.74;100321.00;1052380;28;665;-70
2023/01/12 01:53:27;;;;;;;;;;;;;;;12.74;74.98;100314.66;1052350;28;1075;-71
2023/01/12 01:54:17;;;;;;;;;;;;;;;12.74;75.29;100322.69;1050491;28;692;-70
2023/01/12 01:55:08;;;;;;;;;;;;;;;12.75;74.96;100317.22;1052203;28;677;-70
2023/01/12 01:55:58;;;;;;;;;;;;;;;12.74;74.49;100320.88;1047547;28;1142;-70
2023/01/12 01:56:49;;;;;;;;;;;;;;;12.73;74.64;100319.16;1045492;28;635;-71
2023/01/12 01:57:39;;;;;;;;;;;;;;;12.74;74.67;100317.34;1044541;28;1977;-72
2023/01/12 01:58:30;;;;;;;;;;;;;;;12.74;75.06;100330.72;1046661;28;1328;-70
2023/01/12 01:59:20;;;;;;;;;;;;;;;12.74;74.86;100320.88;1044590;28;1512;-71
2023/01/12 02:00:11;;;;;;;;;;;;;;;12.73;75.29;100321.84;1045469;28;1706;-70
2023/01/12 02:01:01;;;;;;;;;;;;;;;12.73;74.67;100323.66;1044954;28;665;-70
2023/01/12 02:01:51;;;;;;;;;;;;;;;12.73;75.02;100312.97;1046001;28;1146;-70
2023/01/12 02:02:42;;;;;;;;;;;;;;;12.73;74.97;100321.00;1042160;28;1505;-70
2023/01/12 02:03:32;;;;;;;;;;;;;;;12.73;75.26;100313.81;1045711;28;1834;-70
2023/01/12 02:04:24;;;;;;;;;;;;;;;12.74;74.89;100320.88;1045594;28;1559;-70
2023/01/12 02:05:14;;;;;;;;;;;;;;;12.74;74.42;100315.53;1048091;28;1622;-70
2023/01/12 02:06:05;;;;;;;;;;;;;;;12.74;75.19;100318.19;1045018;28;1473;-70
2023/01/12 02:06:55;;;;;;;;;;;;;;;12.75;75.36;100327.91;1049157;28;622;-70
2023/01/12 02:07:46;;;;;;;;;;;;;;;12.74;75.21;100312.00;1042855;28;1473;-69
2023/01/12 02:08:36;;;;;;;;;;;;;;;12.73;75.12;100321.84;1044423;28;1513;-70
2023/01/12 02:09:27;;;;;;;;;;;;;;;12.74;74.57;100323.53;1046318;28;1753;-70
2023/01/12 02:10:17;;;;;;;;;;;;;;;12.72;74.51;100322.81;1041515;28;698;-70
2023/01/12 02:16:19;;;;;;;;;;;;;;;12.72;74.98;100320.13;1043459;28;1481;-71
2023/01/12 02:16:20;;;;;;;;;;;;;;;12.71;75.36;100297.09;1033088;28;1384;-70
2023/01/12 02:17:10;;;;;;;;;;;;;;;12.73;75.46;100299.59;1032960;28;642;-71
2023/01/12 02:18:01;;;;;;;;;;;;;;;12.73;75.43;100297.78;1033184;28;698;-71
2023/01/12 02:18:51;;;;;;;;;;;;;;;12.73;75.19;100292.44;1033364;28;634;-70
2023/01/12 02:19:41;;;;;;;;;;;;;;;12.72;74.66;100293.41;1035785;28;1459;-70
2023/01/12 02:20:32;;;;;;;;;;;;;;;12.75;75.07;100293.16;1032250;28;646;-71
2023/01/12 02:21:23;;;;;;;;;;;;;;;12.74;75.37;100282.59;1036235;28;743;-71
2023/01/12 02:22:13;;;;;;;;;;;;;;;12.73;75.17;100289.75;1036224;28;1192;-70
2023/01/12 02:23:04;;;;;;;;;;;;;;;12.73;74.51;100283.56;1036299;28;783;-71
2023/01/12 02:23:54;;;;;;;;;;;;;;;12.73;75.06;100273.72;1036133;28;1215;-71
2023/01/12 02:24:45;;;;;;;;;;;;;;;12.73;74.69;100279.06;1036228;28;826;-70
2023/01/12 02:25:35;;;;;;;;;;;;;;;12.75;75.12;100276.25;1035089;28;1729;-70
2023/01/12 02:26:26;;;;;;;;;;;;;;;12.73;74.84;100279.06;1036873;28;749;-71
2023/01/12 02:27:16;;;;;;;;;;;;;;;12.73;74.64;100278.22;1036153;28;1251;-71
2023/01/12 02:28:07;;;;;;;;;;;;;;;12.71;75.29;100280.19;1036716;28;723;-71
2023/01/12 02:28:57;;;;;;;;;;;;;;;12.72;74.85;100277.38;1037384;28;1018;-70
2023/01/12 02:29:48;;;;;;;;;;;;;;;12.73;75.19;100279.06;1037324;28;786;-69
2023/01/12 02:30:38;;;;;;;;;;;;;;;12.74;75.27;100269.22;1036325;28;712;-69
2023/01/12 02:31:28;;;;;;;;;;;;;;;12.74;74.56;100269.22;1032954;28;661;-69
2023/01/12 02:32:19;;;;;;;;;;;;;;;12.73;75.28;100257.69;1036431;28;1602;-69
2023/01/12 02:33:09;;;;;;;;;;;;;;;12.71;75.02;100256.97;1033556;28;1022;-70
2023/01/12 02:34:00;;;;;;;;;;;;;;;12.72;74.47;100255.97;1036171;28;736;-70
2023/01/12 02:34:50;;;;;;;;;;;;;;;12.73;74.95;100256.81;1037385;28;647;-69
2023/01/12 02:35:41;;;;;;;;;;;;;;;12.73;74.72;100257.69;1036218;28;1048;-69
2023/01/12 02:36:31;;;;;;;;;;;;;;;12.74;74.72;100248.69;1034027;28;693;-69
2023/01/12 02:37:21;;;;;;;;;;;;;;;12.73;75.26;100243.47;1033294;28;1973;-69
2023/01/12 02:38:12;;;;;;;;;;;;;;;12.73;75.58;100244.31;1032748;28;678;-70
2023/01/12 02:39:02;;;;;;;;;;;;;;;12.73;75.22;100246.13;1037177;28;1283;-69
2023/01/12 02:39:58;;;;;;;;;;;;;;;12.74;75.01;100243.34;1036197;28;630;-70
2023/01/12 02:40:48;;;;;;;;;;;;;;;12.73;74.72;100236.28;1035933;28;1140;-70
2023/01/12 02:42:53;;;;;;;;;;;;;;;12.74;75.30;100242.47;1036852;28;642;-69
2023/01/12 02:43:43;;;;;;;;;;;;;;;12.75;74.76;100238.84;1036215;28;1218;-69
2023/01/12 02:44:34;;;;;;;;;;;;;;;12.73;74.89;100225.59;1033404;28;673;-69
2023/01/12 02:45:24;;;;;;;;;;;;;;;12.72;74.92;100226.56;1032477;28;760;-68
2023/01/12 02:46:14;;;;;;;;;;;;;;;12.73;75.34;100228.25;1036356;28;717;-69
2023/01/12 02:47:05;;;;;;;;;;;;;;;12.73;74.56;100222.91;1037145;28;1519;-69
2023/01/12 02:47:55;;;;;;;;;;;;;;;12.73;75.58;100225.59;1036314;28;662;-69
2023/01/12 02:48:46;;;;;;;;;;;;;;;12.74;75.20;100237.13;1042382;28;1012;-69
2023/01/12 02:49:36;;;;;;;;;;;;;;;12.72;75.01;100218.53;1048558;28;661;-70
2023/01/12 02:50:27;;;;;;;;;;;;;;;12.72;75.06;100229.25;1046078;28;924;-69
2023/01/12 02:51:17;;;;;;;;;;;;;;;12.74;75.14;100223.75;1041888;28;685;-69
2023/01/12 02:52:08;;;;;;;;;;;;;;;12.75;75.46;100217.44;1044264;28;1179;-70
2023/01/12 02:52:58;;;;;;;;;;;;;;;12.73;75.53;100212.22;1045111;28;1687;-69
2023/01/12 02:53:49;;;;;;;;;;;;;;;12.74;74.94;100210.41;1048479;28;1024;-70
2023/01/12 02:54:39;;;;;;;;;;;;;;;12.74;75.35;100208.56;1048553;28;618;-70
2023/01/12 02:55:30;;;;;;;;;;;;;;;12.73;75.20;100201.53;1047742;28;1507;-69
2023/01/12 02:56:20;;;;;;;;;;;;;;;12.74;74.88;100203.22;1051541;28;713;-70
2023/01/12 02:57:11;;;;;;;;;;;;;;;12.73;74.92;100198.84;1048062;28;712;-70
2023/01/12 02:58:01;;;;;;;;;;;;;;;12.71;74.96;100203.50;1047774;28;776;-69
2023/01/12 02:58:51;;;;;;;;;;;;;;;12.73;74.80;100192.66;1051685;28;1131;-70
2023/01/12 02:59:42;;;;;;;;;;;;;;;12.73;75.15;100203.34;1051888;28;776;-70
2023/01/12 03:00:33;;;;;;;;;;;;;;;12.74;75.10;100197.88;1050896;28;1055;-71
2023/01/12 03:01:24;;;;;;;;;;;;;;;12.73;75.68;100198.84;1051882;28;684;-70
2023/01/12 03:02:15;;;;;;;;;;;;;;;12.73;75.42;100201.53;1052040;28;1647;-70
2023/01/12 03:03:05;;;;;;;;;;;;;;;12.73;74.64;100198.84;1052438;28;690;-69
2023/01/12 03:03:55;;;;;;;;;;;;;;;12.74;75.08;100200.56;1052049;28;728;-69
2023/01/12 03:04:46;;;;;;;;;;;;;;;12.74;74.86;100189.00;1051890;28;677;-69
2023/01/12 03:05:36;;;;;;;;;;;;;;;12.74;75.34;100184.50;1052042;28;721;-69
2023/01/12 03:06:27;;;;;;;;;;;;;;;12.74;74.83;100181.00;1051879;28;662;-69
2023/01/12 03:07:17;;;;;;;;;;;;;;;12.76;75.46;100197.75;1051964;28;634;-68
2023/01/12 03:08:08;;;;;;;;;;;;;;;12.74;74.97;100183.66;1048760;28;1313;-69
2023/01/12 03:08:58;;;;;;;;;;;;;;;12.72;75.36;100188.31;1048040;28;729;-70
2023/01/12 03:09:48;;;;;;;;;;;;;;;12.73;74.99;100190.00;1052533;28;789;-69
2023/01/12 03:10:39;;;;;;;;;;;;;;;12.73;74.67;100181.97;1051942;28;630;-69
2023/01/12 03:11:29;;;;;;;;;;;;;;;12.72;75.46;100185.66;1047869;28;675;-69
2023/01/12 03:12:20;;;;;;;;;;;;;;;12.72;75.46;100197.16;1051483;28;1835;-69
2023/01/12 03:13:10;;;;;;;;;;;;;;;12.72;74.61;100185.66;1048372;28;669;-69
2023/01/12 03:14:01;;;;;;;;;;;;;;;12.72;75.45;100182.97;1048155;28;1005;-69
2023/01/12 03:14:51;;;;;;;;;;;;;;;12.73;75.36;100176.63;1049335;28;1485;-69
2023/01/12 03:15:42;;;;;;;;;;;;;;;12.71;75.50;100179.44;1051649;28;1021;-69
2023/01/12 03:16:32;;;;;;;;;;;;;;;12.71;75.44;100184.81;1048337;28;744;-69
2023/01/12 03:17:22;;;;;;;;;;;;;;;12.73;74.93;100181.97;1050851;28;1977;-70
2023/01/12 03:18:13;;;;;;;;;;;;;;;12.73;75.25;100176.63;1048252;28;678;-68
2023/01/12 03:19:04;;;;;;;;;;;;;;;12.73;75.36;100163.25;1049139;28;1167;-69
2023/01/12 03:19:55;;;;;;;;;;;;;;;12.72;74.63;100149.03;1051755;28;689;-69
2023/01/12 03:20:45;;;;;;;;;;;;;;;12.71;74.85;100157.22;1051903;28;1222;-69
2023/01/12 03:21:36;;;;;;;;;;;;;;;12.71;75.50;100150.03;1051775;28;630;-69
2023/01/12 03:22:26;;;;;;;;;;;;;;;12.71;74.74;100147.38;1050975;28;925;-69
2023/01/12 03:23:17;;;;;;;;;;;;;;;12.71;74.69;100142.03;1052218;28;708;-69
2023/01/12 03:24:07;;;;;;;;;;;;;;;12.72;74.76;100138.34;1051857;28;726;-69
2023/01/12 03:25:01;;;;;;;;;;;;;;;12.70;74.75;100137.66;1051784;28;700;-69
2023/01/12 03:25:51;;;;;;;;;;;;;;;12.70;74.79;100140.31;1052331;28;708;-68
2023/01/12 03:26:41;;;;;;;;;;;;;;;12.71;75.58;100131.34;1052040;28;676;-69
2023/01/12 03:27:32;;;;;;;;;;;;;;;12.71;74.64;100143.84;1052246;28;1008;-70
2023/01/12 03:28:22;;;;;;;;;;;;;;;12.71;75.16;100131.34;1051958;28;708;-70
2023/01/12 03:29:13;;;;;;;;;;;;;;;12.71;74.67;100125.97;1047484;28;1095;-69
2023/01/12 03:30:03;;;;;;;;;;;;;;;12.72;74.81;100122.31;1051744;28;642;-69
2023/01/12 03:30:54;;;;;;;;;;;;;;;12.73;74.81;100107.13;1047886;28;1386;-69
2023/01/12 03:31:44;;;;;;;;;;;;;;;12.71;75.45;100107.28;1048459;28;1209;-69
2023/01/12 03:32:35;;;;;;;;;;;;;;;12.70;75.28;100110.91;1048103;28;637;-69
2023/01/12 03:33:25;;;;;;;;;;;;;;;12.70;75.22;100092.22;1049761;28;1159;-69
2023/01/12 03:34:16;;;;;;;;;;;;;;;12.71;74.75;100093.91;1050060;28;1639;-70
2023/01/12 03:35:07;;;;;;;;;;;;;;;12.71;74.97;100107.28;1051609;28;1026;-69
2023/01/12 03:35:58;;;;;;;;;;;;;;;12.72;75.32;100100.91;1052635;28;707;-70
2023/01/12 03:36:48;;;;;;;;;;;;;;;12.72;75.11;100106.25;1051709;28;686;-71
2023/01/12 03:37:39;;;;;;;;;;;;;;;12.73;74.81;100083.91;1051829;28;1960;-71
2023/01/12 03:38:29;;;;;;;;;;;;;;;12.71;75.45;100083.22;1051815;28;650;-71
2023/01/12 03:39:20;;;;;;;;;;;;;;;12.71;75.23;100091.22;1051923;28;1195;-71
2023/01/12 03:40:10;;;;;;;;;;;;;;;12.71;74.84;100088.56;1051816;28;687;-71
2023/01/12 03:41:00;;;;;;;;;;;;;;;12.70;75.03;100092.22;1048837;28;747;-70
2023/01/12 03:41:51;;;;;;;;;;;;;;;12.69;75.27;100085.16;1050910;28;715;-70
2023/01/12 03:42:42;;;;;;;;;;;;;;;12.70;75.06;100084.19;1051869;28;681;-70
2023/01/12 03:43:33;;;;;;;;;;;;;;;12.71;74.86;100079.69;1048908;28;740;-70
2023/01/12 03:44:27;;;;;;;;;;;;;;;12.68;75.51;100075.44;1051706;28;1084;-70
2023/01/12 03:45:17;;;;;;;;;;;;;;;12.70;75.47;100072.66;1050581;28;1058;-69
2023/01/12 03:46:07;;;;;;;;;;;;;;;12.71;75.40;100071.66;1051645;28;1145;-69
2023/01/12 03:46:58;;;;;;;;;;;;;;;12.71;75.14;100067.16;1052886;28;1142;-69
2023/01/12 03:47:48;;;;;;;;;;;;;;;12.71;75.01;100044.94;1052045;28;1149;-69
2023/01/12 03:48:39;;;;;;;;;;;;;;;12.70;74.64;100038.75;1048943;28;1667;-69
2023/01/12 03:49:29;;;;;;;;;;;;;;;12.71;75.24;100034.25;1048057;28;1214;-69
2023/01/12 03:50:20;;;;;;;;;;;;;;;12.70;75.30;100046.75;1051254;28;1133;-69
2023/01/12 03:51:11;;;;;;;;;;;;;;;12.69;75.62;100039.72;1051828;28;1229;-69
2023/01/12 03:52:01;;;;;;;;;;;;;;;12.69;75.66;100034.38;1050845;28;1071;-68
2023/01/12 03:52:52;;;;;;;;;;;;;;;12.70;74.83;100025.38;1051461;28;1182;-69
2023/01/12 03:53:42;;;;;;;;;;;;;;;12.70;75.21;100020.03;1047657;28;1146;-69
2023/01/12 03:54:33;;;;;;;;;;;;;;;12.71;75.41;100010.19;1045417;28;983;-70
2023/01/12 03:55:23;;;;;;;;;;;;;;;12.70;75.45;100001.31;1050461;28;1783;-69
2023/01/12 03:56:14;;;;;;;;;;;;;;;12.70;75.61;99992.44;1052589;28;1040;-70
2023/01/12 03:57:04;;;;;;;;;;;;;;;12.71;75.01;100003.00;1051727;28;1167;-70
2023/01/12 03:57:54;;;;;;;;;;;;;;;12.71;74.85;99984.31;1052020;28;1182;-69
2023/01/12 03:58:45;;;;;;;;;;;;;;;12.71;74.91;99976.28;1052543;28;1151;-68
2023/01/12 03:59:35;;;;;;;;;;;;;;;12.73;75.42;99981.47;1049526;28;1167;-68
2023/01/12 04:00:26;;;;;;;;;;;;;;;12.74;75.49;99976.00;1051516;28;1155;-69
2023/01/12 04:01:16;;;;;;;;;;;;;;;12.74;75.20;99975.13;1051972;28;1179;-69
2023/01/12 04:02:07;;;;;;;;;;;;;;;12.71;75.58;99970.09;1052137;28;1230;-68
2023/01/12 04:02:58;;;;;;;;;;;;;;;12.72;75.49;99972.59;1051701;28;1406;-68
2023/01/12 04:03:48;;;;;;;;;;;;;;;12.70;75.69;99965.72;1051465;28;1214;-69
2023/01/12 04:04:39;;;;;;;;;;;;;;;12.71;75.35;99970.09;1052296;28;1159;-69
2023/01/12 04:05:29;;;;;;;;;;;;;;;12.70;75.11;99963.91;1051467;28;1172;-68
2023/01/12 04:06:20;;;;;;;;;;;;;;;12.71;74.69;99954.06;1051289;28;1444;-68
2023/01/12 04:07:10;;;;;;;;;;;;;;;12.70;75.62;99961.22;1048936;28;1287;-69
2023/01/12 04:08:00;;;;;;;;;;;;;;;12.71;75.32;99962.91;1051643;28;1230;-69
2023/01/12 04:08:51;;;;;;;;;;;;;;;12.70;75.49;99955.88;1050429;28;1140;-69
2023/01/12 04:09:41;;;;;;;;;;;;;;;12.70;75.49;99961.22;1048292;28;1323;-69
2023/01/12 04:10:32;;;;;;;;;;;;;;;12.67;74.78;99958.81;1046431;28;1297;-69
2023/01/12 04:12:31;;;;;;;;;;;;;;;12.69;75.46;99940.81;1052150;28;1547;-69
2023/01/12 04:13:22;;;;;;;;;;;;;;;12.69;75.00;99951.50;1052211;28;1259;-70
2023/01/12 04:14:12;;;;;;;;;;;;;;;12.68;75.17;99944.47;1051572;28;1636;-69
2023/01/12 04:15:03;;;;;;;;;;;;;;;12.68;75.57;99944.47;1051863;28;1236;-68
2023/01/12 04:15:53;;;;;;;;;;;;;;;12.69;75.75;99935.47;1051895;28;1297;-69
2023/01/12 04:16:45;;;;;;;;;;;;;;;12.70;75.03;99925.63;1052229;28;1523;-69
2023/01/12 04:17:36;;;;;;;;;;;;;;;12.67;74.95;99926.75;1051567;28;1898;-69
2023/01/12 04:18:26;;;;;;;;;;;;;;;12.68;75.40;99928.44;1050086;28;1445;-69
2023/01/12 04:19:17;;;;;;;;;;;;;;;12.68;74.87;99917.75;1052250;28;1421;-69
2023/01/12 04:20:08;;;;;;;;;;;;;;;12.66;75.42;99914.34;1050220;28;1176;-69
2023/01/12 04:20:58;;;;;;;;;;;;;;;12.67;75.69;99916.03;1051640;28;1290;-69
2023/01/12 04:22:58;;;;;;;;;;;;;;;12.67;75.46;99915.19;1048064;28;544;-69
2023/01/12 04:23:48;;;;;;;;;;;;;;;12.65;74.96;99918.00;1050326;28;1055;-69
2023/01/12 04:24:39;;;;;;;;;;;;;;;12.68;75.61;99917.75;1051984;28;673;-69
2023/01/12 04:25:29;;;;;;;;;;;;;;;12.68;75.68;99911.53;1051619;28;1099;-69
2023/01/12 04:26:20;;;;;;;;;;;;;;;12.69;75.04;99910.56;1052033;28;1191;-69
2023/01/12 04:27:10;;;;;;;;;;;;;;;12.69;74.97;99922.09;1051180;28;729;-69
2023/01/12 04:28:03;;;;;;;;;;;;;;;12.70;74.96;99917.59;1051766;28;1167;-69
2023/01/12 04:28:54;;;;;;;;;;;;;;;12.68;74.96;99904.38;1051883;28;716;-70
2023/01/12 04:29:44;;;;;;;;;;;;;;;12.69;75.51;99924.78;1050130;28;972;-69
2023/01/12 04:30:35;;;;;;;;;;;;;;;12.69;74.95;99902.53;1051933;28;736;-70
2023/01/12 04:31:25;;;;;;;;;;;;;;;12.69;74.97;99900.72;1051555;28;953;-69
2023/01/12 04:32:15;;;;;;;;;;;;;;;12.67;75.59;99905.34;1051984;28;736;-70
2023/01/12 04:33:06;;;;;;;;;;;;;;;12.67;75.45;99904.50;1051540;28;711;-71
2023/01/12 04:33:57;;;;;;;;;;;;;;;12.67;75.56;99901.84;1052744;28;1225;-70
2023/01/12 04:34:47;;;;;;;;;;;;;;;12.68;74.81;99909.72;1051346;28;1623;-70
2023/01/12 04:35:38;;;;;;;;;;;;;;;12.69;75.23;99899.88;1052572;28;784;-70
2023/01/12 04:36:28;;;;;;;;;;;;;;;12.66;75.60;99889.44;1051600;28;1073;-71
2023/01/12 04:37:19;;;;;;;;;;;;;;;12.66;75.44;99898.31;1051865;28;1130;-71
2023/01/12 04:38:09;;;;;;;;;;;;;;;12.68;75.45;99890.16;1048737;28;665;-71
2023/01/12 04:39:00;;;;;;;;;;;;;;;12.66;75.05;99881.44;1051344;28;1027;-69